sensor_id;sensor_type;location;lat;lon;timestamp;P1;durP1;ratioP1;P2;durP2;ratioP2
65407;SDS011;52017;51.230;-2.322;2022-12-07T00:00:25;13.70;;;10.03;;
65407;SDS011;52017;51.230;-2.322;2022-12-07T00:04:09;18.93;;;10.83;;
65407;SDS011;52017;51.230;-2.322;2022-12-07T00:07:53;13.80;;;10.77;;
65407;SDS011;52017;51.230;-2.322;2022-12-07T00:11:35;16.90;;;10.97;;
65407;SDS011;52017;51.230;-2.322;2022-12-07T00:15:18;15.63;;;10.47;;
65407;SDS011;52017;51.230;-2.322;2022-12-07T00:19:00;19.00;;;11.90;;
65407;SDS011;52017;51.230;-2.322;2022-12-07T00:22:42;17.13;;;11.03;;
65407;SDS011;52017;51.230;-2.322;2022-12-07T00:30:08;57.50;;;32.53;;
65407;SDS011;52017;51.230;-2.322;2022-12-07T00:33:51;38.17;;;22.67;;
65407;SDS011;52017;51.230;-2.322;2022-12-07T00:37:33;30.03;;;19.20;;
65407;SDS011;52017;51.230;-2.322;2022-12-07T00:41:19;38.27;;;19.63;;
65407;SDS011;52017;51.230;-2.322;2022-12-07T00:45:03;24.83;;;17.73;;
65407;SDS011;52017;51.230;-2.322;2022-12-07T00:48:46;20.13;;;14.77;;
65407;SDS011;52017;51.230;-2.322;2022-12-07T00:52:28;26.40;;;15.27;;
65407;SDS011;52017;51.230;-2.322;2022-12-07T00:56:14;24.20;;;15.13;;
65407;SDS011;52017;51.230;-2.322;2022-12-07T01:00:01;23.50;;;14.37;;
65407;SDS011;52017;51.230;-2.322;2022-12-07T01:03:43;19.80;;;12.60;;
65407;SDS011;52017;51.230;-2.322;2022-12-07T01:07:25;26.17;;;15.90;;
65407;SDS011;52017;51.230;-2.322;2022-12-07T01:11:09;18.10;;;12.37;;
65407;SDS011;52017;51.230;-2.322;2022-12-07T01:14:53;31.40;;;18.23;;
65407;SDS011;52017;51.230;-2.322;2022-12-07T01:18:35;31.50;;;18.00;;
65407;SDS011;52017;51.230;-2.322;2022-12-07T01:22:17;23.30;;;15.00;;
65407;SDS011;52017;51.230;-2.322;2022-12-07T01:26:00;23.63;;;14.00;;
65407;SDS011;52017;51.230;-2.322;2022-12-07T01:29:44;22.73;;;12.73;;
65407;SDS011;52017;51.230;-2.322;2022-12-07T01:33:27;25.33;;;14.13;;
65407;SDS011;52017;51.230;-2.322;2022-12-07T01:37:10;22.57;;;12.63;;
65407;SDS011;52017;51.230;-2.322;2022-12-07T01:40:56;21.37;;;13.23;;
65407;SDS011;52017;51.230;-2.322;2022-12-07T01:45:18;21.75;;;12.63;;
65407;SDS011;52017;51.230;-2.322;2022-12-07T01:49:16;19.03;;;11.20;;
65407;SDS011;52017;51.230;-2.322;2022-12-07T01:53:08;17.63;;;9.93;;
65407;SDS011;52017;51.230;-2.322;2022-12-07T01:56:52;16.37;;;10.17;;
65407;SDS011;52017;51.230;-2.322;2022-12-07T02:00:37;16.02;;;10.48;;
65407;SDS011;52017;51.230;-2.322;2022-12-07T02:04:21;15.30;;;9.57;;
65407;SDS011;52017;51.230;-2.322;2022-12-07T02:08:04;13.80;;;9.27;;
65407;SDS011;52017;51.230;-2.322;2022-12-07T02:11:46;12.20;;;9.27;;
65407;SDS011;52017;51.230;-2.322;2022-12-07T02:15:32;15.20;;;10.33;;
65407;SDS011;52017;51.230;-2.322;2022-12-07T02:24:17;15.30;;;10.20;;
65407;SDS011;52017;51.230;-2.322;2022-12-07T02:32:12;15.93;;;9.83;;
65407;SDS011;52017;51.230;-2.322;2022-12-07T02:36:04;16.83;;;10.90;;
65407;SDS011;52017;51.230;-2.322;2022-12-07T02:39:53;13.37;;;9.97;;
65407;SDS011;52017;51.230;-2.322;2022-12-07T02:43:45;13.77;;;9.60;;
65407;SDS011;52017;51.230;-2.322;2022-12-07T02:51:13;15.70;;;9.93;;
65407;SDS011;52017;51.230;-2.322;2022-12-07T02:54:55;17.07;;;9.70;;
65407;SDS011;52017;51.230;-2.322;2022-12-07T03:02:58;16.20;;;10.03;;
65407;SDS011;52017;51.230;-2.322;2022-12-07T03:07:00;17.57;;;10.40;;
65407;SDS011;52017;51.230;-2.322;2022-12-07T03:10:54;15.53;;;10.47;;
65407;SDS011;52017;51.230;-2.322;2022-12-07T03:14:49;16.07;;;11.03;;
65407;SDS011;52017;51.230;-2.322;2022-12-07T03:18:38;16.70;;;9.97;;
65407;SDS011;52017;51.230;-2.322;2022-12-07T03:22:34;13.30;;;9.13;;
65407;SDS011;52017;51.230;-2.322;2022-12-07T03:26:18;13.17;;;9.97;;
65407;SDS011;52017;51.230;-2.322;2022-12-07T03:30:07;16.40;;;9.60;;
65407;SDS011;52017;51.230;-2.322;2022-12-07T03:38:11;14.83;;;9.97;;
65407;SDS011;52017;51.230;-2.322;2022-12-07T03:42:01;16.50;;;9.53;;
65407;SDS011;52017;51.230;-2.322;2022-12-07T03:45:59;16.37;;;12.27;;
65407;SDS011;52017;51.230;-2.322;2022-12-07T03:49:52;12.20;;;9.13;;
65407;SDS011;52017;51.230;-2.322;2022-12-07T03:54:27;16.37;;;10.17;;
65407;SDS011;52017;51.230;-2.322;2022-12-07T03:58:17;20.03;;;10.80;;
65407;SDS011;52017;51.230;-2.322;2022-12-07T04:02:03;16.27;;;10.07;;
65407;SDS011;52017;51.230;-2.322;2022-12-07T04:05:47;15.47;;;10.13;;
65407;SDS011;52017;51.230;-2.322;2022-12-07T04:09:29;15.40;;;10.40;;
65407;SDS011;52017;51.230;-2.322;2022-12-07T04:13:11;16.93;;;10.47;;
65407;SDS011;52017;51.230;-2.322;2022-12-07T04:16:54;14.53;;;10.83;;
65407;SDS011;52017;51.230;-2.322;2022-12-07T04:20:37;19.07;;;11.57;;
65407;SDS011;52017;51.230;-2.322;2022-12-07T04:24:19;16.07;;;9.97;;
65407;SDS011;52017;51.230;-2.322;2022-12-07T04:28:02;15.83;;;10.70;;
65407;SDS011;52017;51.230;-2.322;2022-12-07T04:31:44;12.73;;;9.90;;
65407;SDS011;52017;51.230;-2.322;2022-12-07T04:35:26;14.37;;;9.57;;
65407;SDS011;52017;51.230;-2.322;2022-12-07T04:39:09;14.20;;;9.53;;
65407;SDS011;52017;51.230;-2.322;2022-12-07T04:43:15;13.70;;;9.85;;
65407;SDS011;52017;51.230;-2.322;2022-12-07T04:46:58;16.53;;;9.73;;
65407;SDS011;52017;51.230;-2.322;2022-12-07T04:50:40;16.17;;;9.50;;
65407;SDS011;52017;51.230;-2.322;2022-12-07T04:54:26;16.73;;;10.63;;
65407;SDS011;52017;51.230;-2.322;2022-12-07T04:58:08;15.07;;;9.93;;
65407;SDS011;52017;51.230;-2.322;2022-12-07T05:01:50;15.40;;;9.57;;
65407;SDS011;52017;51.230;-2.322;2022-12-07T05:05:32;14.67;;;9.63;;
65407;SDS011;52017;51.230;-2.322;2022-12-07T05:09:14;15.47;;;9.97;;
65407;SDS011;52017;51.230;-2.322;2022-12-07T05:12:56;17.63;;;10.17;;
65407;SDS011;52017;51.230;-2.322;2022-12-07T05:16:39;19.33;;;9.30;;
65407;SDS011;52017;51.230;-2.322;2022-12-07T05:20:22;16.87;;;10.50;;
65407;SDS011;52017;51.230;-2.322;2022-12-07T05:24:04;14.93;;;10.70;;
65407;SDS011;52017;51.230;-2.322;2022-12-07T05:27:48;15.80;;;10.33;;
65407;SDS011;52017;51.230;-2.322;2022-12-07T05:31:31;18.23;;;10.87;;
65407;SDS011;52017;51.230;-2.322;2022-12-07T05:35:13;17.93;;;11.57;;
65407;SDS011;52017;51.230;-2.322;2022-12-07T05:38:55;16.10;;;10.27;;
65407;SDS011;52017;51.230;-2.322;2022-12-07T05:42:38;19.17;;;10.10;;
65407;SDS011;52017;51.230;-2.322;2022-12-07T05:46:20;14.87;;;9.83;;
65407;SDS011;52017;51.230;-2.322;2022-12-07T05:50:03;15.30;;;10.00;;
65407;SDS011;52017;51.230;-2.322;2022-12-07T05:53:46;20.23;;;10.13;;
65407;SDS011;52017;51.230;-2.322;2022-12-07T05:57:28;18.37;;;11.23;;
65407;SDS011;52017;51.230;-2.322;2022-12-07T06:01:10;16.60;;;9.70;;
65407;SDS011;52017;51.230;-2.322;2022-12-07T06:04:52;15.27;;;10.33;;
65407;SDS011;52017;51.230;-2.322;2022-12-07T06:08:34;15.77;;;10.70;;
65407;SDS011;52017;51.230;-2.322;2022-12-07T06:12:16;18.13;;;11.03;;
65407;SDS011;52017;51.230;-2.322;2022-12-07T06:16:17;15.10;;;9.57;;
65407;SDS011;52017;51.230;-2.322;2022-12-07T06:19:59;17.70;;;10.57;;
65407;SDS011;52017;51.230;-2.322;2022-12-07T06:23:41;16.67;;;9.73;;
65407;SDS011;52017;51.230;-2.322;2022-12-07T06:27:23;15.33;;;9.57;;
65407;SDS011;52017;51.230;-2.322;2022-12-07T06:31:06;15.53;;;9.50;;
65407;SDS011;52017;51.230;-2.322;2022-12-07T06:34:54;16.97;;;10.60;;
65407;SDS011;52017;51.230;-2.322;2022-12-07T06:38:36;14.73;;;9.63;;
65407;SDS011;52017;51.230;-2.322;2022-12-07T06:42:18;15.40;;;10.37;;
65407;SDS011;52017;51.230;-2.322;2022-12-07T06:46:01;18.93;;;10.87;;
65407;SDS011;52017;51.230;-2.322;2022-12-07T06:49:43;16.90;;;9.60;;
65407;SDS011;52017;51.230;-2.322;2022-12-07T06:53:25;15.57;;;10.30;;
65407;SDS011;52017;51.230;-2.322;2022-12-07T06:57:07;18.87;;;9.97;;
65407;SDS011;52017;51.230;-2.322;2022-12-07T07:00:49;14.23;;;8.80;;
65407;SDS011;52017;51.230;-2.322;2022-12-07T07:04:31;17.90;;;10.23;;
65407;SDS011;52017;51.230;-2.322;2022-12-07T07:08:13;17.73;;;10.13;;
65407;SDS011;52017;51.230;-2.322;2022-12-07T07:12:04;16.80;;;10.03;;
65407;SDS011;52017;51.230;-2.322;2022-12-07T07:15:46;14.83;;;9.43;;
65407;SDS011;52017;51.230;-2.322;2022-12-07T07:19:28;15.73;;;9.93;;
65407;SDS011;52017;51.230;-2.322;2022-12-07T07:23:10;20.23;;;10.47;;
65407;SDS011;52017;51.230;-2.322;2022-12-07T07:26:52;17.33;;;10.50;;
65407;SDS011;52017;51.230;-2.322;2022-12-07T07:30:34;17.73;;;10.17;;
65407;SDS011;52017;51.230;-2.322;2022-12-07T07:34:16;20.60;;;10.47;;
65407;SDS011;52017;51.230;-2.322;2022-12-07T07:37:58;20.20;;;10.73;;
65407;SDS011;52017;51.230;-2.322;2022-12-07T07:41:40;15.97;;;10.07;;
65407;SDS011;52017;51.230;-2.322;2022-12-07T07:45:23;16.90;;;9.93;;
65407;SDS011;52017;51.230;-2.322;2022-12-07T07:49:06;17.40;;;10.30;;
65407;SDS011;52017;51.230;-2.322;2022-12-07T07:52:48;21.57;;;11.13;;
65407;SDS011;52017;51.230;-2.322;2022-12-07T07:56:30;14.90;;;9.33;;
65407;SDS011;52017;51.230;-2.322;2022-12-07T08:00:13;18.03;;;10.70;;
65407;SDS011;52017;51.230;-2.322;2022-12-07T08:03:56;18.20;;;9.60;;
65407;SDS011;52017;51.230;-2.322;2022-12-07T08:07:38;14.57;;;10.00;;
65407;SDS011;52017;51.230;-2.322;2022-12-07T08:11:20;17.27;;;10.50;;
65407;SDS011;52017;51.230;-2.322;2022-12-07T08:15:03;16.50;;;10.00;;
65407;SDS011;52017;51.230;-2.322;2022-12-07T08:18:45;20.73;;;10.43;;
65407;SDS011;52017;51.230;-2.322;2022-12-07T08:22:27;18.00;;;11.13;;
65407;SDS011;52017;51.230;-2.322;2022-12-07T08:26:11;16.93;;;10.33;;
65407;SDS011;52017;51.230;-2.322;2022-12-07T08:29:55;16.33;;;10.07;;
65407;SDS011;52017;51.230;-2.322;2022-12-07T08:33:38;22.13;;;11.53;;
65407;SDS011;52017;51.230;-2.322;2022-12-07T08:37:22;16.30;;;10.00;;
65407;SDS011;52017;51.230;-2.322;2022-12-07T08:41:04;16.77;;;10.57;;
65407;SDS011;52017;51.230;-2.322;2022-12-07T08:44:47;19.33;;;11.20;;
65407;SDS011;52017;51.230;-2.322;2022-12-07T08:48:29;21.77;;;11.33;;
65407;SDS011;52017;51.230;-2.322;2022-12-07T08:52:13;20.33;;;11.57;;
65407;SDS011;52017;51.230;-2.322;2022-12-07T08:55:55;19.97;;;11.33;;
65407;SDS011;52017;51.230;-2.322;2022-12-07T08:59:39;20.27;;;11.43;;
65407;SDS011;52017;51.230;-2.322;2022-12-07T09:03:22;19.87;;;11.87;;
65407;SDS011;52017;51.230;-2.322;2022-12-07T09:07:04;20.33;;;13.27;;
65407;SDS011;52017;51.230;-2.322;2022-12-07T09:10:47;16.70;;;12.17;;
65407;SDS011;52017;51.230;-2.322;2022-12-07T09:14:29;21.13;;;11.60;;
65407;SDS011;52017;51.230;-2.322;2022-12-07T09:18:12;15.33;;;9.80;;
65407;SDS011;52017;51.230;-2.322;2022-12-07T09:21:54;17.43;;;11.60;;
65407;SDS011;52017;51.230;-2.322;2022-12-07T09:25:36;14.83;;;10.50;;
65407;SDS011;52017;51.230;-2.322;2022-12-07T09:29:18;22.47;;;13.60;;
65407;SDS011;52017;51.230;-2.322;2022-12-07T09:33:00;22.10;;;11.63;;
65407;SDS011;52017;51.230;-2.322;2022-12-07T09:36:45;17.27;;;11.23;;
65407;SDS011;52017;51.230;-2.322;2022-12-07T09:40:31;19.50;;;10.67;;
65407;SDS011;52017;51.230;-2.322;2022-12-07T09:44:20;17.67;;;10.68;;
65407;SDS011;52017;51.230;-2.322;2022-12-07T09:48:05;22.13;;;11.47;;
65407;SDS011;52017;51.230;-2.322;2022-12-07T09:55:50;16.97;;;12.50;;
65407;SDS011;52017;51.230;-2.322;2022-12-07T09:59:34;17.03;;;12.40;;
65407;SDS011;52017;51.230;-2.322;2022-12-07T10:03:17;19.93;;;13.07;;
65407;SDS011;52017;51.230;-2.322;2022-12-07T10:06:59;20.53;;;13.80;;
65407;SDS011;52017;51.230;-2.322;2022-12-07T10:10:44;18.03;;;11.53;;
65407;SDS011;52017;51.230;-2.322;2022-12-07T10:14:32;18.43;;;12.20;;
65407;SDS011;52017;51.230;-2.322;2022-12-07T10:18:38;22.80;;;14.73;;
65407;SDS011;52017;51.230;-2.322;2022-12-07T10:22:27;24.07;;;15.50;;
65407;SDS011;52017;51.230;-2.322;2022-12-07T10:30:16;20.03;;;11.30;;
65407;SDS011;52017;51.230;-2.322;2022-12-07T10:34:15;19.03;;;11.10;;
65407;SDS011;52017;51.230;-2.322;2022-12-07T10:38:18;18.00;;;9.60;;
65407;SDS011;52017;51.230;-2.322;2022-12-07T10:42:03;16.83;;;9.00;;
65407;SDS011;52017;51.230;-2.322;2022-12-07T10:46:10;18.43;;;9.83;;
65407;SDS011;52017;51.230;-2.322;2022-12-07T11:27:13;13.80;;;6.60;;
65407;SDS011;52017;51.230;-2.322;2022-12-07T11:31:13;12.53;;;6.17;;
65407;SDS011;52017;51.230;-2.322;2022-12-07T11:35:34;15.47;;;8.13;;
65407;SDS011;52017;51.230;-2.322;2022-12-07T11:48:24;15.50;;;7.13;;
65407;SDS011;52017;51.230;-2.322;2022-12-07T11:52:26;7.53;;;4.47;;
65407;SDS011;52017;51.230;-2.322;2022-12-07T11:56:22;12.07;;;6.03;;
65407;SDS011;52017;51.230;-2.322;2022-12-07T12:00:15;14.17;;;5.93;;
65407;SDS011;52017;51.230;-2.322;2022-12-07T12:04:06;9.47;;;6.13;;
65407;SDS011;52017;51.230;-2.322;2022-12-07T12:08:00;14.73;;;6.47;;
65407;SDS011;52017;51.230;-2.322;2022-12-07T12:20:31;12.70;;;5.23;;
65407;SDS011;52017;51.230;-2.322;2022-12-07T12:24:23;12.70;;;5.17;;
65407;SDS011;52017;51.230;-2.322;2022-12-07T12:29:18;10.57;;;5.07;;
65407;SDS011;52017;51.230;-2.322;2022-12-07T12:32:39;13.77;;;5.17;;
65407;SDS011;52017;51.230;-2.322;2022-12-07T12:36:28;22.27;;;5.97;;
65407;SDS011;52017;51.230;-2.322;2022-12-07T12:48:09;13.80;;;5.63;;
65407;SDS011;52017;51.230;-2.322;2022-12-07T12:56:23;20.87;;;6.50;;
65407;SDS011;52017;51.230;-2.322;2022-12-07T13:00:15;14.53;;;7.30;;
65407;SDS011;52017;51.230;-2.322;2022-12-07T13:04:03;17.33;;;7.80;;
65407;SDS011;52017;51.230;-2.322;2022-12-07T13:12:11;20.10;;;9.73;;
65407;SDS011;52017;51.230;-2.322;2022-12-07T13:19:54;21.43;;;7.83;;
65407;SDS011;52017;51.230;-2.322;2022-12-07T13:23:37;17.15;;;9.60;;
65407;SDS011;52017;51.230;-2.322;2022-12-07T13:27:27;28.03;;;8.87;;
65407;SDS011;52017;51.230;-2.322;2022-12-07T13:35:35;16.07;;;5.60;;
65407;SDS011;52017;51.230;-2.322;2022-12-07T13:39:26;40.87;;;8.30;;
65407;SDS011;52017;51.230;-2.322;2022-12-07T13:43:12;17.97;;;5.80;;
65407;SDS011;52017;51.230;-2.322;2022-12-07T13:50:54;22.90;;;5.27;;
65407;SDS011;52017;51.230;-2.322;2022-12-07T13:54:43;15.60;;;4.83;;
65407;SDS011;52017;51.230;-2.322;2022-12-07T13:58:48;18.90;;;4.70;;
65407;SDS011;52017;51.230;-2.322;2022-12-07T14:02:32;36.93;;;9.37;;
65407;SDS011;52017;51.230;-2.322;2022-12-07T14:06:24;22.33;;;5.70;;
65407;SDS011;52017;51.230;-2.322;2022-12-07T14:10:22;28.38;;;6.60;;
65407;SDS011;52017;51.230;-2.322;2022-12-07T14:14:06;19.07;;;5.37;;
65407;SDS011;52017;51.230;-2.322;2022-12-07T14:17:54;21.90;;;6.63;;
65407;SDS011;52017;51.230;-2.322;2022-12-07T14:21:37;14.67;;;5.47;;
65407;SDS011;52017;51.230;-2.322;2022-12-07T14:25:20;25.00;;;6.67;;
65407;SDS011;52017;51.230;-2.322;2022-12-07T14:33:09;19.97;;;6.43;;
65407;SDS011;52017;51.230;-2.322;2022-12-07T14:36:51;20.57;;;5.80;;
65407;SDS011;52017;51.230;-2.322;2022-12-07T14:40:33;37.60;;;8.20;;
65407;SDS011;52017;51.230;-2.322;2022-12-07T14:44:20;24.87;;;5.13;;
65407;SDS011;52017;51.230;-2.322;2022-12-07T14:48:11;15.93;;;5.53;;
65407;SDS011;52017;51.230;-2.322;2022-12-07T14:52:24;18.80;;;5.50;;
65407;SDS011;52017;51.230;-2.322;2022-12-07T14:56:29;21.47;;;5.80;;
65407;SDS011;52017;51.230;-2.322;2022-12-07T15:00:15;22.10;;;5.70;;
65407;SDS011;52017;51.230;-2.322;2022-12-07T15:03:58;29.10;;;6.17;;
65407;SDS011;52017;51.230;-2.322;2022-12-07T15:07:41;23.53;;;6.47;;
65407;SDS011;52017;51.230;-2.322;2022-12-07T15:11:28;19.23;;;5.93;;
65407;SDS011;52017;51.230;-2.322;2022-12-07T15:15:11;23.10;;;6.83;;
65407;SDS011;52017;51.230;-2.322;2022-12-07T15:18:53;14.60;;;4.93;;
65407;SDS011;52017;51.230;-2.322;2022-12-07T15:22:55;17.47;;;6.17;;
65407;SDS011;52017;51.230;-2.322;2022-12-07T15:26:38;15.53;;;5.17;;
65407;SDS011;52017;51.230;-2.322;2022-12-07T15:30:21;16.10;;;5.00;;
65407;SDS011;52017;51.230;-2.322;2022-12-07T15:34:04;20.83;;;7.07;;
65407;SDS011;52017;51.230;-2.322;2022-12-07T15:37:48;17.40;;;6.03;;
65407;SDS011;52017;51.230;-2.322;2022-12-07T15:41:30;19.57;;;6.33;;
65407;SDS011;52017;51.230;-2.322;2022-12-07T15:45:12;17.97;;;5.90;;
65407;SDS011;52017;51.230;-2.322;2022-12-07T15:48:55;21.90;;;6.03;;
65407;SDS011;52017;51.230;-2.322;2022-12-07T15:52:39;14.03;;;5.07;;
65407;SDS011;52017;51.230;-2.322;2022-12-07T16:00:09;13.77;;;4.33;;
65407;SDS011;52017;51.230;-2.322;2022-12-07T16:03:53;22.93;;;6.73;;
65407;SDS011;52017;51.230;-2.322;2022-12-07T16:07:35;24.17;;;6.20;;
65407;SDS011;52017;51.230;-2.322;2022-12-07T16:11:18;11.13;;;4.80;;
65407;SDS011;52017;51.230;-2.322;2022-12-07T16:15:04;13.20;;;4.73;;
65407;SDS011;52017;51.230;-2.322;2022-12-07T16:18:48;12.70;;;4.50;;
65407;SDS011;52017;51.230;-2.322;2022-12-07T16:22:33;17.43;;;5.43;;
65407;SDS011;52017;51.230;-2.322;2022-12-07T16:26:18;13.67;;;5.77;;
65407;SDS011;52017;51.230;-2.322;2022-12-07T16:30:05;12.80;;;5.03;;
65407;SDS011;52017;51.230;-2.322;2022-12-07T16:33:54;47.70;;;28.47;;
65407;SDS011;52017;51.230;-2.322;2022-12-07T16:37:38;11.23;;;5.67;;
65407;SDS011;52017;51.230;-2.322;2022-12-07T16:41:23;10.07;;;5.83;;
65407;SDS011;52017;51.230;-2.322;2022-12-07T16:45:09;11.70;;;5.57;;
65407;SDS011;52017;51.230;-2.322;2022-12-07T16:49:00;13.17;;;6.20;;
65407;SDS011;52017;51.230;-2.322;2022-12-07T16:52:47;20.23;;;9.70;;
65407;SDS011;52017;51.230;-2.322;2022-12-07T16:56:33;21.48;;;10.13;;
65407;SDS011;52017;51.230;-2.322;2022-12-07T17:00:17;18.53;;;7.10;;
65407;SDS011;52017;51.230;-2.322;2022-12-07T17:04:01;15.03;;;7.03;;
65407;SDS011;52017;51.230;-2.322;2022-12-07T17:07:50;21.03;;;10.40;;
65407;SDS011;52017;51.230;-2.322;2022-12-07T17:11:32;32.70;;;15.13;;
65407;SDS011;52017;51.230;-2.322;2022-12-07T17:15:15;33.63;;;16.03;;
65407;SDS011;52017;51.230;-2.322;2022-12-07T17:19:09;25.23;;;12.73;;
65407;SDS011;52017;51.230;-2.322;2022-12-07T17:23:04;32.83;;;17.77;;
65407;SDS011;52017;51.230;-2.322;2022-12-07T17:26:46;32.77;;;17.03;;
65407;SDS011;52017;51.230;-2.322;2022-12-07T17:30:29;36.63;;;20.13;;
65407;SDS011;52017;51.230;-2.322;2022-12-07T17:34:19;41.13;;;17.00;;
65407;SDS011;52017;51.230;-2.322;2022-12-07T17:38:01;26.93;;;12.57;;
65407;SDS011;52017;51.230;-2.322;2022-12-07T17:41:56;19.10;;;11.07;;
65407;SDS011;52017;51.230;-2.322;2022-12-07T17:45:57;22.47;;;11.60;;
65407;SDS011;52017;51.230;-2.322;2022-12-07T17:49:44;25.07;;;13.23;;
65407;SDS011;52017;51.230;-2.322;2022-12-07T17:53:27;28.20;;;14.97;;
65407;SDS011;52017;51.230;-2.322;2022-12-07T17:57:12;25.57;;;13.80;;
65407;SDS011;52017;51.230;-2.322;2022-12-07T18:00:54;22.87;;;13.57;;
65407;SDS011;52017;51.230;-2.322;2022-12-07T18:04:36;18.67;;;9.97;;
65407;SDS011;52017;51.230;-2.322;2022-12-07T18:08:19;16.17;;;8.77;;
65407;SDS011;52017;51.230;-2.322;2022-12-07T18:12:02;21.47;;;10.20;;
65407;SDS011;52017;51.230;-2.322;2022-12-07T18:15:45;14.23;;;7.70;;
65407;SDS011;52017;51.230;-2.322;2022-12-07T18:19:27;13.90;;;9.87;;
65407;SDS011;52017;51.230;-2.322;2022-12-07T18:23:09;14.40;;;8.63;;
65407;SDS011;52017;51.230;-2.322;2022-12-07T18:26:53;16.00;;;8.77;;
65407;SDS011;52017;51.230;-2.322;2022-12-07T18:30:34;14.23;;;9.40;;
65407;SDS011;52017;51.230;-2.322;2022-12-07T18:34:37;14.73;;;10.87;;
65407;SDS011;52017;51.230;-2.322;2022-12-07T18:38:21;17.17;;;11.30;;
65407;SDS011;52017;51.230;-2.322;2022-12-07T18:42:03;18.30;;;10.20;;
65407;SDS011;52017;51.230;-2.322;2022-12-07T18:45:50;19.13;;;10.27;;
65407;SDS011;52017;51.230;-2.322;2022-12-07T18:49:37;23.00;;;11.43;;
65407;SDS011;52017;51.230;-2.322;2022-12-07T18:53:36;25.90;;;15.30;;
65407;SDS011;52017;51.230;-2.322;2022-12-07T18:57:19;21.30;;;12.37;;
65407;SDS011;52017;51.230;-2.322;2022-12-07T19:01:01;19.57;;;12.60;;
65407;SDS011;52017;51.230;-2.322;2022-12-07T19:04:44;22.33;;;11.87;;
65407;SDS011;52017;51.230;-2.322;2022-12-07T19:08:32;20.13;;;12.43;;
65407;SDS011;52017;51.230;-2.322;2022-12-07T19:12:21;22.87;;;11.17;;
65407;SDS011;52017;51.230;-2.322;2022-12-07T19:16:05;24.93;;;14.50;;
65407;SDS011;52017;51.230;-2.322;2022-12-07T19:20:12;25.17;;;14.97;;
65407;SDS011;52017;51.230;-2.322;2022-12-07T19:24:04;18.70;;;13.03;;
65407;SDS011;52017;51.230;-2.322;2022-12-07T19:31:30;17.93;;;10.53;;
65407;SDS011;52017;51.230;-2.322;2022-12-07T19:35:12;18.57;;;11.10;;
65407;SDS011;52017;51.230;-2.322;2022-12-07T19:38:54;22.63;;;11.90;;
65407;SDS011;52017;51.230;-2.322;2022-12-07T19:42:36;19.00;;;12.27;;
65407;SDS011;52017;51.230;-2.322;2022-12-07T19:46:22;20.13;;;12.27;;
65407;SDS011;52017;51.230;-2.322;2022-12-07T19:50:04;23.00;;;12.87;;
65407;SDS011;52017;51.230;-2.322;2022-12-07T19:53:47;21.10;;;11.87;;
65407;SDS011;52017;51.230;-2.322;2022-12-07T19:57:29;30.60;;;13.60;;
65407;SDS011;52017;51.230;-2.322;2022-12-07T20:01:11;35.77;;;17.87;;
65407;SDS011;52017;51.230;-2.322;2022-12-07T20:04:53;37.03;;;18.27;;
65407;SDS011;52017;51.230;-2.322;2022-12-07T20:08:37;38.87;;;22.20;;
65407;SDS011;52017;51.230;-2.322;2022-12-07T20:16:24;24.27;;;15.13;;
65407;SDS011;52017;51.230;-2.322;2022-12-07T20:20:06;23.40;;;13.93;;
65407;SDS011;52017;51.230;-2.322;2022-12-07T20:23:49;30.33;;;12.93;;
65407;SDS011;52017;51.230;-2.322;2022-12-07T20:27:31;22.70;;;12.57;;
65407;SDS011;52017;51.230;-2.322;2022-12-07T20:31:16;20.80;;;11.93;;
65407;SDS011;52017;51.230;-2.322;2022-12-07T20:35:01;24.80;;;14.53;;
65407;SDS011;52017;51.230;-2.322;2022-12-07T20:38:45;25.73;;;14.73;;
65407;SDS011;52017;51.230;-2.322;2022-12-07T20:42:28;29.87;;;17.33;;
65407;SDS011;52017;51.230;-2.322;2022-12-07T20:46:19;27.83;;;15.27;;
65407;SDS011;52017;51.230;-2.322;2022-12-07T20:50:05;20.23;;;13.20;;
65407;SDS011;52017;51.230;-2.322;2022-12-07T20:53:50;20.60;;;12.17;;
65407;SDS011;52017;51.230;-2.322;2022-12-07T20:57:32;18.27;;;9.97;;
65407;SDS011;52017;51.230;-2.322;2022-12-07T21:01:17;23.57;;;12.57;;
65407;SDS011;52017;51.230;-2.322;2022-12-07T21:04:59;22.53;;;12.47;;
65407;SDS011;52017;51.230;-2.322;2022-12-07T21:08:43;21.30;;;12.83;;
65407;SDS011;52017;51.230;-2.322;2022-12-07T21:12:29;26.93;;;14.43;;
65407;SDS011;52017;51.230;-2.322;2022-12-07T21:16:12;28.93;;;13.37;;
65407;SDS011;52017;51.230;-2.322;2022-12-07T21:19:56;25.13;;;13.17;;
65407;SDS011;52017;51.230;-2.322;2022-12-07T21:23:41;24.90;;;14.33;;
65407;SDS011;52017;51.230;-2.322;2022-12-07T21:27:24;29.87;;;16.97;;
65407;SDS011;52017;51.230;-2.322;2022-12-07T21:31:07;38.47;;;21.63;;
65407;SDS011;52017;51.230;-2.322;2022-12-07T21:34:55;25.10;;;16.30;;
65407;SDS011;52017;51.230;-2.322;2022-12-07T21:38:37;23.73;;;14.17;;
65407;SDS011;52017;51.230;-2.322;2022-12-07T21:42:19;22.10;;;11.93;;
65407;SDS011;52017;51.230;-2.322;2022-12-07T21:46:01;18.37;;;10.77;;
65407;SDS011;52017;51.230;-2.322;2022-12-07T21:49:44;20.83;;;11.70;;
65407;SDS011;52017;51.230;-2.322;2022-12-07T21:53:26;18.63;;;11.70;;
65407;SDS011;52017;51.230;-2.322;2022-12-07T21:57:08;22.27;;;10.77;;
65407;SDS011;52017;51.230;-2.322;2022-12-07T22:00:51;18.63;;;9.90;;
65407;SDS011;52017;51.230;-2.322;2022-12-07T22:04:33;18.57;;;9.67;;
65407;SDS011;52017;51.230;-2.322;2022-12-07T22:08:17;20.33;;;10.87;;
65407;SDS011;52017;51.230;-2.322;2022-12-07T22:11:59;21.97;;;12.20;;
65407;SDS011;52017;51.230;-2.322;2022-12-07T22:15:45;25.03;;;11.47;;
65407;SDS011;52017;51.230;-2.322;2022-12-07T22:19:28;21.40;;;13.87;;
65407;SDS011;52017;51.230;-2.322;2022-12-07T22:23:10;22.60;;;10.70;;
65407;SDS011;52017;51.230;-2.322;2022-12-07T22:26:56;20.07;;;11.83;;
65407;SDS011;52017;51.230;-2.322;2022-12-07T22:30:38;24.67;;;13.97;;
65407;SDS011;52017;51.230;-2.322;2022-12-07T22:34:21;19.83;;;11.73;;
65407;SDS011;52017;51.230;-2.322;2022-12-07T22:38:05;25.37;;;9.57;;
65407;SDS011;52017;51.230;-2.322;2022-12-07T22:41:54;23.00;;;10.63;;
65407;SDS011;52017;51.230;-2.322;2022-12-07T22:45:36;20.93;;;11.37;;
65407;SDS011;52017;51.230;-2.322;2022-12-07T22:49:22;20.13;;;11.40;;
65407;SDS011;52017;51.230;-2.322;2022-12-07T22:53:09;21.70;;;9.95;;
65407;SDS011;52017;51.230;-2.322;2022-12-07T22:56:54;14.80;;;8.47;;
65407;SDS011;52017;51.230;-2.322;2022-12-07T23:00:36;15.87;;;8.73;;
65407;SDS011;52017;51.230;-2.322;2022-12-07T23:04:18;14.00;;;9.47;;
65407;SDS011;52017;51.230;-2.322;2022-12-07T23:08:01;16.20;;;9.47;;
65407;SDS011;52017;51.230;-2.322;2022-12-07T23:11:44;19.93;;;11.60;;
65407;SDS011;52017;51.230;-2.322;2022-12-07T23:15:45;15.10;;;9.13;;
65407;SDS011;52017;51.230;-2.322;2022-12-07T23:19:27;15.30;;;8.07;;
65407;SDS011;52017;51.230;-2.322;2022-12-07T23:23:09;17.57;;;8.43;;
65407;SDS011;52017;51.230;-2.322;2022-12-07T23:26:51;15.80;;;9.53;;
65407;SDS011;52017;51.230;-2.322;2022-12-07T23:30:36;19.00;;;8.97;;
65407;SDS011;52017;51.230;-2.322;2022-12-07T23:34:18;16.63;;;8.10;;
65407;SDS011;52017;51.230;-2.322;2022-12-07T23:38:00;13.33;;;7.47;;
65407;SDS011;52017;51.230;-2.322;2022-12-07T23:41:42;9.50;;;7.27;;
65407;SDS011;52017;51.230;-2.322;2022-12-07T23:45:27;15.97;;;8.70;;
65407;SDS011;52017;51.230;-2.322;2022-12-07T23:49:09;13.87;;;8.10;;
65407;SDS011;52017;51.230;-2.322;2022-12-07T23:52:53;14.60;;;7.33;;
65407;SDS011;52017;51.230;-2.322;2022-12-07T23:56:36;15.87;;;8.03;;
